Terminal Aerodrome Forecast
Issued by NWS

Home | Current Version | Previous Version | Text Only | Print | Product List | Glossary On
Versions: 1 2 3 4 5 6 7 8 9 10 11 12 13 14 15 16 17
783
FTUS43 KIND 280520
TAFHUF
TAF
KHUF 280520Z 2806/2906 35004KT P6SM VCTS SCT090CB
     FM280800 VRB04KT 4SM BR OVC250
     FM281200 VRB03KT 4SM BR BKN100
     FM281800 VRB03KT P6SM VCTS BKN050 OVC100CB=

USA.gov is the U.S. government's official web portal to all federal, state and local government web resources and services.